Chilly, Idaho
Current Conditions -  °F | °C
As of 5:47 PM on Wednesday 22 Oct 2014 (Local Time) from KSUN Reporting Station
Broken Clouds Broken Clouds  
Wind Chill: 45°   Ceiling: 12000
Heat Index: 48°   Visibility: 10mi
Dew Point: 32°   Wind: 8mph
Humidity: 54%   Direction: 140°SE
Pressure: 30.16"   Gusts: NA
Location:  43.8935°N, 113.876°W
Report Text: KSUN 222347Z 14007KT 10SM BKN120 09/00 A3016
Loading
Personal Weather Stations






























Interactive Weather Map
Tropical Storm Tracking
New forecast layout! Learn more

10-Day Weather Forecast

Advertisements
Track Severe Weather on mobile